Time;durP1;ratioP1;P1;durP2;ratioP2;P2;SDS_P1;SDS_P2;PMS_P1;PMS_P2;Temp;Humidity;BMP_temperature;BMP_pressure;BME280_temperature;BME280_humidity;BME280_pressure;Samples;Min_cycle;Max_cycle;Signal;HPM_P1;HPM_P2
2024/02/11 00:01:19;;;;;;;;;;;;;;;5.42;74.97;99985.99;107581;1249;99073;-68
2024/02/11 00:03:48;;;;;;;;;;;;;;;5.46;75.01;99988.55;107641;1250;113076;-64
2024/02/11 00:06:16;;;;;;;;;;;;;;;5.51;74.98;99995.29;107600;1254;108397;-63
2024/02/11 00:08:45;;;;;;;;;;;;;;;5.56;75.09;99989.56;107547;1251;108052;-62
2024/02/11 00:11:13;;;;;;;;;;;;;;;5.60;75.07;99987.63;107616;1251;99060;-62
2024/02/11 00:13:43;;;;;;;;;;;;;;;5.62;75.12;99986.21;107597;1251;99172;-62
2024/02/11 00:16:13;;;;;;;;;;;;;;;5.68;75.37;99984.70;107601;1254;113506;-63
2024/02/11 00:18:42;;;;;;;;;;;;;;;5.72;75.30;99983.48;107594;1251;107510;-63
2024/02/11 00:21:13;;;;;;;;;;;;;;;5.77;75.40;99980.59;107548;1251;108718;-63
2024/02/11 00:23:44;;;;;;;;;;;;;;;5.83;75.52;99982.79;107639;1251;99297;-64
2024/02/11 00:26:13;;;;;;;;;;;;;;;5.88;75.68;99984.16;107558;1254;99122;-63
2024/02/11 00:28:42;;;;;;;;;;;;;;;5.92;75.66;99981.98;107584;1250;112600;-63
2024/02/11 00:31:11;;;;;;;;;;;;;;;5.95;75.45;99981.73;107590;1250;107669;-63
2024/02/11 00:33:39;;;;;;;;;;;;;;;5.97;75.39;99980.88;107559;1250;107938;-64
2024/02/11 00:36:08;;;;;;;;;;;;;;;5.99;75.35;99980.60;107620;1251;99259;-64
2024/02/11 00:38:37;;;;;;;;;;;;;;;5.98;75.24;99977.06;107612;1251;99185;-64
2024/02/11 00:41:06;;;;;;;;;;;;;;;6.00;75.21;99978.18;107598;1251;113285;-63
2024/02/11 00:43:36;;;;;;;;;;;;;;;6.02;75.32;99979.83;107588;1251;107105;-63
2024/02/11 00:46:05;;;;;;;;;;;;;;;6.03;75.10;99976.86;107554;1251;108564;-63
2024/02/11 00:48:33;;;;;;;;;;;;;;;6.03;75.00;99980.07;107576;1251;99169;-63
2024/02/11 00:51:02;;;;;;;;;;;;;;;6.02;74.85;99980.39;107595;1254;99282;-64
2024/02/11 00:53:31;;;;;;;;;;;;;;;5.98;74.90;99980.98;107616;1254;111838;-63
2024/02/11 00:55:59;;;;;;;;;;;;;;;5.97;74.99;99978.95;107544;1251;107750;-64
2024/02/11 00:58:28;;;;;;;;;;;;;;;5.96;75.00;99977.91;107612;1251;108103;-63
2024/02/11 01:00:56;;;;;;;;;;;;;;;5.96;75.03;99975.30;107511;1251;99176;-63
2024/02/11 01:03:24;;;;;;;;;;;;;;;5.96;75.06;99974.74;107520;1251;99189;-63
2024/02/11 01:05:52;;;;;;;;;;;;;;;5.94;75.16;99975.65;107547;1252;113620;-64
2024/02/11 01:08:20;;;;;;;;;;;;;;;5.93;75.11;99978.38;107581;1251;110775;-63
2024/02/11 01:10:49;;;;;;;;;;;;;;;5.93;74.96;99976.80;107627;1251;108222;-63
2024/02/11 01:13:17;;;;;;;;;;;;;;;5.94;75.20;99972.23;107629;1251;99227;-63
2024/02/11 01:15:46;;;;;;;;;;;;;;;5.96;75.33;99969.23;107540;1254;99524;-62
2024/02/11 01:18:14;;;;;;;;;;;;;;;5.96;75.49;99967.63;107583;1251;112600;-62
2024/02/11 01:20:43;;;;;;;;;;;;;;;5.95;75.44;99973.41;107508;1251;107794;-63
2024/02/11 01:23:11;;;;;;;;;;;;;;;5.96;75.54;99970.80;107525;1251;108404;-62
2024/02/11 01:25:40;;;;;;;;;;;;;;;5.98;75.65;99970.89;107617;1253;99065;-63
2024/02/11 01:28:08;;;;;;;;;;;;;;;5.99;75.38;99970.44;107614;1251;99098;-63
2024/02/11 01:30:38;;;;;;;;;;;;;;;5.98;75.28;99974.05;107563;1251;113537;-62
2024/02/11 01:33:09;;;;;;;;;;;;;;;5.99;75.46;99976.54;107495;1251;108314;-63
2024/02/11 01:35:41;;;;;;;;;;;;;;;6.00;75.82;99978.88;107571;1251;108069;-62
2024/02/11 01:38:10;;;;;;;;;;;;;;;6.03;75.83;99974.05;107529;1251;99271;-63
2024/02/11 01:40:40;;;;;;;;;;;;;;;6.05;75.88;99972.84;107586;1254;99218;-63
2024/02/11 01:43:09;;;;;;;;;;;;;;;6.06;75.95;99972.90;107614;1251;113413;-63
2024/02/11 01:45:37;;;;;;;;;;;;;;;6.09;76.05;99972.86;107543;1250;107504;-62
2024/02/11 01:48:08;;;;;;;;;;;;;;;6.12;75.93;99967.23;107555;1256;107306;-63
2024/02/11 01:50:37;;;;;;;;;;;;;;;6.16;75.99;99972.81;107622;1250;99288;-64
2024/02/11 01:53:07;;;;;;;;;;;;;;;6.21;76.19;99976.48;107622;1251;99061;-62
2024/02/11 01:55:37;;;;;;;;;;;;;;;6.26;76.25;99977.14;107557;1251;112649;-63
2024/02/11 01:58:06;;;;;;;;;;;;;;;6.31;76.21;99973.23;107558;1251;108615;-64
2024/02/11 02:00:35;;;;;;;;;;;;;;;6.32;76.05;99968.28;107669;1251;108491;-62
2024/02/11 02:03:04;;;;;;;;;;;;;;;6.32;75.90;99959.95;107545;1253;99173;-63
2024/02/11 02:05:32;;;;;;;;;;;;;;;6.31;75.83;99956.47;107530;1251;99083;-61
2024/02/11 02:08:03;;;;;;;;;;;;;;;6.29;75.55;99953.60;107516;1251;112967;-62
2024/02/11 02:10:31;;;;;;;;;;;;;;;6.29;75.88;99952.52;107615;1251;107917;-63
2024/02/11 02:13:00;;;;;;;;;;;;;;;6.31;75.99;99951.77;107550;1250;108235;-64
2024/02/11 02:15:28;;;;;;;;;;;;;;;6.34;76.22;99951.54;107513;1255;99271;-62
2024/02/11 02:17:57;;;;;;;;;;;;;;;6.37;76.00;99946.27;107635;1251;99077;-61
2024/02/11 02:20:25;;;;;;;;;;;;;;;6.42;76.20;99940.73;107600;1251;113556;-63
2024/02/11 02:22:54;;;;;;;;;;;;;;;6.44;76.13;99943.21;107546;1251;108426;-62
2024/02/11 02:25:22;;;;;;;;;;;;;;;6.47;76.17;99941.77;107599;1250;107992;-62
2024/02/11 02:27:50;;;;;;;;;;;;;;;6.49;76.12;99944.95;107538;1251;99875;-63
2024/02/11 02:30:18;;;;;;;;;;;;;;;6.49;75.77;99950.27;107565;1251;99070;-63
2024/02/11 02:32:46;;;;;;;;;;;;;;;6.49;75.90;99952.42;107547;1252;113208;-62
2024/02/11 02:35:21;;;;;;;;;;;;;;;6.47;75.65;99952.05;107513;1253;109422;-63
2024/02/11 02:37:52;;;;;;;;;;;;;;;6.47;75.58;99952.99;107572;1251;107475;-64
2024/02/11 02:40:26;;;;;;;;;;;;;;;6.45;75.65;99950.29;107679;1251;99890;-62
2024/02/11 02:42:56;;;;;;;;;;;;;;;6.45;75.67;99957.41;107586;1251;99929;-62
2024/02/11 02:45:25;;;;;;;;;;;;;;;6.46;75.73;99959.45;107528;1253;113479;-62
2024/02/11 02:47:54;;;;;;;;;;;;;;;6.48;75.75;99958.97;107527;1253;108686;-64
2024/02/11 02:50:22;;;;;;;;;;;;;;;6.49;75.78;99956.02;107570;1255;107952;-63
2024/02/11 02:52:51;;;;;;;;;;;;;;;6.49;75.75;99952.83;107637;1251;99198;-64
2024/02/11 02:55:20;;;;;;;;;;;;;;;6.49;75.99;99950.88;107582;1251;99361;-65
2024/02/11 02:57:48;;;;;;;;;;;;;;;6.51;76.13;99944.59;107630;1251;111873;-64
2024/02/11 03:00:18;;;;;;;;;;;;;;;6.54;76.18;99936.30;107557;1251;107063;-64
2024/02/11 03:02:47;;;;;;;;;;;;;;;6.57;76.11;99922.87;107542;1251;107630;-64
2024/02/11 03:05:16;;;;;;;;;;;;;;;6.60;76.20;99916.02;107631;1254;99172;-62
2024/02/11 03:07:44;;;;;;;;;;;;;;;6.61;75.92;99913.64;107610;1254;99062;-63
2024/02/11 03:10:20;;;;;;;;;;;;;;;6.62;75.96;99913.39;107552;1251;113440;-64
2024/02/11 03:12:49;;;;;;;;;;;;;;;6.64;75.97;99913.73;107594;1251;108571;-63
2024/02/11 03:15:18;;;;;;;;;;;;;;;6.67;75.99;99907.59;107593;1251;108406;-63
2024/02/11 03:17:47;;;;;;;;;;;;;;;6.70;76.03;99904.65;107504;1251;99151;-63
2024/02/11 03:20:16;;;;;;;;;;;;;;;6.72;75.89;99904.49;107503;1250;99993;-63
2024/02/11 03:22:45;;;;;;;;;;;;;;;6.72;75.74;99897.74;107507;1253;112728;-62
2024/02/11 03:25:14;;;;;;;;;;;;;;;6.76;75.99;99902.55;107563;1254;108287;-62
2024/02/11 03:27:42;;;;;;;;;;;;;;;6.80;75.91;99900.68;107587;1252;108578;-62
2024/02/11 03:30:12;;;;;;;;;;;;;;;6.82;75.91;99901.20;107578;1251;99061;-62
2024/02/11 03:32:41;;;;;;;;;;;;;;;6.84;75.82;99904.88;107587;1251;99189;-63
2024/02/11 03:35:10;;;;;;;;;;;;;;;6.86;75.71;99900.45;107600;1251;112220;-63
2024/02/11 03:37:39;;;;;;;;;;;;;;;6.86;75.48;99899.91;107593;1254;107596;-65
2024/02/11 03:40:12;;;;;;;;;;;;;;;6.86;75.50;99892.91;107589;1253;108426;-63
2024/02/11 03:42:41;;;;;;;;;;;;;;;6.85;75.26;99884.84;107578;1253;99274;-63
2024/02/11 03:45:15;;;;;;;;;;;;;;;6.85;75.36;99877.19;107567;1251;99187;-62
2024/02/11 03:47:44;;;;;;;;;;;;;;;6.86;75.38;99883.54;107611;1250;113290;-63
2024/02/11 03:50:14;;;;;;;;;;;;;;;6.85;75.30;99889.88;107615;1251;108336;-63
2024/02/11 03:52:43;;;;;;;;;;;;;;;6.84;75.25;99892.77;107567;1251;107456;-63
2024/02/11 03:55:11;;;;;;;;;;;;;;;6.84;75.17;99890.67;107618;1251;99192;-63
2024/02/11 03:57:40;;;;;;;;;;;;;;;6.84;75.31;99896.36;107593;1251;99252;-63
2024/02/11 04:00:25;;;;;;;;;;;;;;;6.86;75.35;99898.52;107570;1256;113167;-62
2024/02/11 04:02:54;;;;;;;;;;;;;;;6.86;75.38;99898.81;107595;1251;108605;-62
2024/02/11 04:05:24;;;;;;;;;;;;;;;6.87;75.42;99907.68;107545;1251;108635;-62
2024/02/11 04:07:53;;;;;;;;;;;;;;;6.87;75.22;99902.85;107587;1251;99175;-62
2024/02/11 04:10:23;;;;;;;;;;;;;;;6.90;75.26;99907.96;107631;1251;99179;-62
2024/02/11 04:12:52;;;;;;;;;;;;;;;6.92;75.11;99894.98;107590;1254;113434;-62
2024/02/11 04:15:23;;;;;;;;;;;;;;;6.94;75.26;99886.60;107610;1251;107638;-64
2024/02/11 04:17:53;;;;;;;;;;;;;;;6.96;75.13;99886.56;107567;1251;108269;-64
2024/02/11 04:20:27;;;;;;;;;;;;;;;6.97;74.99;99890.62;107556;1251;99169;-63
2024/02/11 04:22:58;;;;;;;;;;;;;;;6.95;75.07;99889.75;107648;1250;99035;-63
2024/02/11 04:25:33;;;;;;;;;;;;;;;6.94;75.16;99893.04;107613;1251;112806;-65
2024/02/11 04:28:02;;;;;;;;;;;;;;;6.94;75.18;99888.56;107645;1251;107170;-61
2024/02/11 04:30:30;;;;;;;;;;;;;;;6.91;74.94;99884.19;107561;1254;107543;-61
2024/02/11 04:33:03;;;;;;;;;;;;;;;6.88;74.83;99882.81;107551;1254;99207;-63
2024/02/11 04:35:33;;;;;;;;;;;;;;;6.83;74.72;99887.15;107586;1251;99175;-66
2024/02/11 04:38:12;;;;;;;;;;;;;;;6.80;74.84;99893.16;107594;1254;112631;-66
2024/02/11 04:40:42;;;;;;;;;;;;;;;6.77;74.93;99881.88;107607;1254;106591;-64
2024/02/11 04:43:12;;;;;;;;;;;;;;;6.77;75.06;99879.55;107582;1254;108736;-64
2024/02/11 04:45:41;;;;;;;;;;;;;;;6.74;75.08;99882.06;107629;1251;99207;-63
2024/02/11 04:48:12;;;;;;;;;;;;;;;6.72;75.21;99881.34;107584;1252;99250;-63
2024/02/11 04:50:41;;;;;;;;;;;;;;;6.70;74.98;99880.97;107611;1255;113262;-62
2024/02/11 04:53:10;;;;;;;;;;;;;;;6.70;75.00;99875.84;107572;1251;108125;-65
2024/02/11 04:55:39;;;;;;;;;;;;;;;6.69;75.22;99876.40;107579;1251;107601;-62
2024/02/11 04:58:19;;;;;;;;;;;;;;;6.71;75.46;99877.19;107573;1251;99175;-66
2024/02/11 05:00:50;;;;;;;;;;;;;;;6.71;75.78;99880.89;107564;1250;99032;-67
2024/02/11 05:03:19;;;;;;;;;;;;;;;6.71;75.62;99877.69;107669;1253;112352;-63
2024/02/11 05:05:52;;;;;;;;;;;;;;;6.70;75.70;99880.82;107607;1256;107001;-62
2024/02/11 05:08:22;;;;;;;;;;;;;;;6.67;75.54;99880.02;107584;1251;106501;-63
2024/02/11 05:10:54;;;;;;;;;;;;;;;6.65;75.64;99888.17;107641;1251;99175;-63
2024/02/11 05:13:29;;;;;;;;;;;;;;;6.62;75.67;99885.41;107607;1251;99164;-62
2024/02/11 05:16:02;;;;;;;;;;;;;;;6.57;75.65;99882.95;107566;1254;113062;-63
2024/02/11 05:18:32;;;;;;;;;;;;;;;6.52;75.81;99894.59;107620;1254;107962;-63
2024/02/11 05:21:02;;;;;;;;;;;;;;;6.48;75.45;99909.95;107544;1253;109749;-63
2024/02/11 05:23:31;;;;;;;;;;;;;;;6.40;75.34;99919.16;107668;1253;99153;-63
2024/02/11 05:26:00;;;;;;;;;;;;;;;6.36;75.50;99925.70;107594;1256;99267;-64
2024/02/11 05:28:30;;;;;;;;;;;;;;;6.34;75.34;99914.55;107583;1251;112662;-62
2024/02/11 05:30:59;;;;;;;;;;;;;;;6.29;75.17;99903.52;107568;1251;108340;-62
2024/02/11 05:33:27;;;;;;;;;;;;;;;6.22;74.99;99896.23;107600;1251;108768;-64
2024/02/11 05:35:56;;;;;;;;;;;;;;;6.15;74.96;99890.25;107611;1251;99179;-63
2024/02/11 05:38:25;;;;;;;;;;;;;;;6.10;75.07;99888.20;107590;1254;99291;-63
2024/02/11 05:40:57;;;;;;;;;;;;;;;6.06;75.15;99884.24;107614;1251;113265;-63
2024/02/11 05:43:27;;;;;;;;;;;;;;;6.00;75.01;99881.59;107625;1251;108570;-62
2024/02/11 05:45:55;;;;;;;;;;;;;;;5.95;75.23;99889.90;107633;1251;108504;-63
2024/02/11 05:48:24;;;;;;;;;;;;;;;5.97;75.46;99906.72;107583;1251;99183;-64
2024/02/11 05:50:52;;;;;;;;;;;;;;;5.96;75.67;99916.14;107583;1250;99073;-64
2024/02/11 05:53:21;;;;;;;;;;;;;;;5.95;75.66;99910.75;107683;1251;113122;-64
2024/02/11 05:55:49;;;;;;;;;;;;;;;5.98;75.77;99926.16;107589;1254;108425;-63
2024/02/11 05:58:19;;;;;;;;;;;;;;;6.03;76.11;99927.05;107579;1251;107895;-64
2024/02/11 06:00:47;;;;;;;;;;;;;;;6.08;76.07;99924.33;107570;1251;99354;-63
2024/02/11 06:03:20;;;;;;;;;;;;;;;6.11;75.80;99913.18;107631;1250;99128;-64
2024/02/11 06:05:50;;;;;;;;;;;;;;;6.12;75.40;99901.75;107589;1256;112472;-63
2024/02/11 06:08:20;;;;;;;;;;;;;;;6.12;75.32;99900.34;107606;1251;108190;-63
2024/02/11 06:10:50;;;;;;;;;;;;;;;6.12;75.51;99906.88;107606;1251;108470;-62
2024/02/11 06:13:19;;;;;;;;;;;;;;;6.15;75.63;99903.45;107540;1253;99180;-63
2024/02/11 06:15:47;;;;;;;;;;;;;;;6.19;75.73;99902.23;107546;1251;99121;-64
2024/02/11 06:18:17;;;;;;;;;;;;;;;6.21;75.52;99910.20;107550;1251;112828;-63
2024/02/11 06:20:46;;;;;;;;;;;;;;;6.23;75.54;99912.38;107548;1251;107577;-64
2024/02/11 06:23:16;;;;;;;;;;;;;;;6.26;75.64;99916.39;107555;1250;108429;-62
2024/02/11 06:25:45;;;;;;;;;;;;;;;6.29;75.57;99917.39;107596;1251;99170;-64
2024/02/11 06:28:13;;;;;;;;;;;;;;;6.31;75.72;99914.94;107606;1251;99197;-62
2024/02/11 06:30:42;;;;;;;;;;;;;;;6.30;75.61;99910.23;107531;1251;113458;-62
2024/02/11 06:33:10;;;;;;;;;;;;;;;6.33;75.67;99910.84;107558;1251;107917;-63
2024/02/11 06:35:40;;;;;;;;;;;;;;;6.37;75.93;99903.36;107563;1255;107779;-63
2024/02/11 06:38:08;;;;;;;;;;;;;;;6.40;75.77;99906.30;107578;1251;100276;-63
2024/02/11 06:40:38;;;;;;;;;;;;;;;6.48;75.85;99908.91;107550;1254;99176;-63
2024/02/11 06:43:11;;;;;;;;;;;;;;;6.49;75.70;99913.40;107583;1253;111143;-62
2024/02/11 06:45:46;;;;;;;;;;;;;;;6.56;75.92;99916.76;107531;1254;108551;-62
2024/02/11 06:48:16;;;;;;;;;;;;;;;6.65;76.10;99919.54;107566;1254;107615;-63
2024/02/11 06:50:44;;;;;;;;;;;;;;;6.73;75.93;99926.70;107571;1251;99272;-63
2024/02/11 06:53:13;;;;;;;;;;;;;;;6.84;76.13;99927.74;107609;1251;99194;-64
2024/02/11 06:55:41;;;;;;;;;;;;;;;6.94;75.85;99926.34;107649;1251;112566;-65
2024/02/11 06:58:10;;;;;;;;;;;;;;;7.01;75.69;99927.30;107556;1251;108639;-64
2024/02/11 07:00:39;;;;;;;;;;;;;;;7.12;75.61;99926.23;107539;1251;107990;-64
2024/02/11 07:03:10;;;;;;;;;;;;;;;7.19;75.36;99920.23;107529;1254;99179;-64
2024/02/11 07:05:39;;;;;;;;;;;;;;;7.22;75.02;99926.23;107657;1251;99279;-64
2024/02/11 07:08:08;;;;;;;;;;;;;;;7.29;75.25;99926.84;107600;1251;113173;-65
2024/02/11 07:10:38;;;;;;;;;;;;;;;7.37;75.18;99927.54;107608;1251;108323;-64
2024/02/11 07:13:06;;;;;;;;;;;;;;;7.46;75.26;99923.02;107610;1251;108126;-63
2024/02/11 07:15:35;;;;;;;;;;;;;;;7.55;75.21;99915.97;107590;1251;99187;-64
2024/02/11 07:18:04;;;;;;;;;;;;;;;7.61;74.91;99908.46;107552;1251;99063;-64
2024/02/11 07:20:32;;;;;;;;;;;;;;;7.65;74.63;99906.15;107627;1251;113791;-63
2024/02/11 07:23:00;;;;;;;;;;;;;;;7.74;74.91;99901.27;107634;1251;108340;-63
2024/02/11 07:25:30;;;;;;;;;;;;;;;7.86;74.97;99905.20;107608;1251;107902;-62
2024/02/11 07:27:58;;;;;;;;;;;;;;;7.99;74.86;99904.90;107636;1254;99168;-62
2024/02/11 07:30:27;;;;;;;;;;;;;;;8.10;74.72;99899.23;107561;1251;99247;-64
2024/02/11 07:32:56;;;;;;;;;;;;;;;8.22;74.47;99903.03;107611;1251;112893;-64
2024/02/11 07:35:24;;;;;;;;;;;;;;;8.32;74.41;99903.48;107590;1251;109073;-64
2024/02/11 07:37:53;;;;;;;;;;;;;;;8.43;73.89;99902.88;107550;1251;108210;-64
2024/02/11 07:40:21;;;;;;;;;;;;;;;8.51;73.49;99898.52;107574;1256;99184;-64
2024/02/11 07:42:50;;;;;;;;;;;;;;;8.57;73.36;99900.69;107573;1255;99207;-65
2024/02/11 07:45:18;;;;;;;;;;;;;;;8.63;73.22;99902.02;107608;1251;112130;-67
2024/02/11 07:47:47;;;;;;;;;;;;;;;8.70;73.05;99910.67;107648;1251;107968;-62
2024/02/11 07:50:18;;;;;;;;;;;;;;;8.77;72.86;99908.99;107623;1251;108785;-63
2024/02/11 07:52:47;;;;;;;;;;;;;;;8.84;72.77;99904.89;107542;1254;99082;-63
2024/02/11 07:55:16;;;;;;;;;;;;;;;8.91;72.64;99903.89;107583;1251;99272;-63
2024/02/11 07:57:46;;;;;;;;;;;;;;;8.99;72.51;99907.98;107607;1254;113164;-63
2024/02/11 08:00:21;;;;;;;;;;;;;;;9.10;72.29;99903.33;107619;1251;108932;-64
2024/02/11 08:02:50;;;;;;;;;;;;;;;9.20;71.84;99910.44;107521;1255;106879;-62
2024/02/11 08:05:21;;;;;;;;;;;;;;;9.32;71.57;99906.05;107589;1251;99707;-63
2024/02/11 08:07:52;;;;;;;;;;;;;;;9.47;71.30;99901.79;107576;1251;99213;-62
2024/02/11 08:10:22;;;;;;;;;;;;;;;9.59;70.30;99905.05;107615;1251;113570;-62
2024/02/11 08:12:52;;;;;;;;;;;;;;;9.69;69.78;99903.84;107642;1251;107330;-63
2024/02/11 08:15:21;;;;;;;;;;;;;;;9.78;69.86;99904.27;107599;1251;108517;-64
2024/02/11 08:17:50;;;;;;;;;;;;;;;9.90;70.14;99908.11;107509;1251;99194;-63
2024/02/11 08:20:19;;;;;;;;;;;;;;;10.05;70.34;99902.54;107637;1251;99086;-63
2024/02/11 08:22:48;;;;;;;;;;;;;;;10.20;70.21;99904.94;107629;1254;113416;-63
2024/02/11 08:25:17;;;;;;;;;;;;;;;10.35;69.46;99913.69;107605;1251;108334;-63
2024/02/11 08:27:46;;;;;;;;;;;;;;;10.52;69.30;99911.12;107586;1251;107257;-64
2024/02/11 08:30:14;;;;;;;;;;;;;;;10.74;69.64;99908.44;107585;1251;99170;-63
2024/02/11 08:32:43;;;;;;;;;;;;;;;10.95;69.55;99900.21;107603;1251;99057;-63
2024/02/11 08:35:12;;;;;;;;;;;;;;;11.14;69.27;99894.29;107586;1251;113273;-62
2024/02/11 08:37:41;;;;;;;;;;;;;;;11.30;68.38;99895.63;107680;1251;107023;-62
2024/02/11 08:40:12;;;;;;;;;;;;;;;11.46;67.11;99906.52;107545;1251;107810;-62
2024/02/11 08:42:41;;;;;;;;;;;;;;;11.60;66.53;99908.65;107653;1256;99325;-63
2024/02/11 08:45:09;;;;;;;;;;;;;;;11.75;66.05;99902.92;106535;1251;1388956;-64
2024/02/11 08:47:38;;;;;;;;;;;;;;;11.86;65.04;99895.80;107635;1251;111991;-64
2024/02/11 08:50:10;;;;;;;;;;;;;;;11.99;64.16;99889.40;107629;1251;108470;-64
2024/02/11 08:52:40;;;;;;;;;;;;;;;12.11;63.73;99887.48;107608;1256;107362;-63
2024/02/11 08:55:10;;;;;;;;;;;;;;;12.27;63.27;99894.15;107578;1251;99184;-63
2024/02/11 08:57:38;;;;;;;;;;;;;;;12.45;63.10;99901.48;107577;1250;99182;-63
2024/02/11 09:00:12;;;;;;;;;;;;;;;12.59;61.66;99897.66;107542;1251;113506;-63
2024/02/11 09:02:42;;;;;;;;;;;;;;;12.69;60.84;99890.09;107627;1251;108472;-65
2024/02/11 09:05:11;;;;;;;;;;;;;;;12.75;60.55;99888.85;107571;1251;107795;-64
2024/02/11 09:07:42;;;;;;;;;;;;;;;12.83;59.58;99890.86;107534;1250;99199;-64
2024/02/11 09:10:13;;;;;;;;;;;;;;;12.93;60.44;99885.77;107584;1251;99115;-66
2024/02/11 09:12:42;;;;;;;;;;;;;;;13.22;60.71;99886.64;107509;1251;113363;-64
2024/02/11 09:15:15;;;;;;;;;;;;;;;13.50;59.80;99879.52;107570;1251;107709;-64
2024/02/11 09:17:46;;;;;;;;;;;;;;;13.82;59.30;99882.84;107573;1251;109395;-63
2024/02/11 09:20:16;;;;;;;;;;;;;;;14.12;58.44;99875.95;107544;1251;99172;-63
2024/02/11 09:22:45;;;;;;;;;;;;;;;14.21;56.79;99876.29;107609;1256;99174;-61
2024/02/11 09:25:14;;;;;;;;;;;;;;;14.35;55.69;99878.06;107632;1256;113663;-63
2024/02/11 09:27:43;;;;;;;;;;;;;;;14.60;55.94;99873.21;107603;1254;108379;-63
2024/02/11 09:30:15;;;;;;;;;;;;;;;14.63;55.78;99873.05;107613;1253;107592;-63
2024/02/11 09:32:44;;;;;;;;;;;;;;;14.55;56.04;99877.16;107569;1257;99205;-62
2024/02/11 09:35:13;;;;;;;;;;;;;;;14.58;55.81;99873.42;107547;1254;99164;-63
2024/02/11 09:37:44;;;;;;;;;;;;;;;14.79;56.22;99864.06;107690;1256;112654;-62
2024/02/11 09:40:15;;;;;;;;;;;;;;;15.24;56.18;99862.75;107548;1255;107592;-64
2024/02/11 09:42:47;;;;;;;;;;;;;;;15.87;55.68;99864.13;107632;1253;108139;-63
2024/02/11 09:45:19;;;;;;;;;;;;;;;16.59;54.10;99859.73;107528;1251;99172;-63
2024/02/11 09:47:50;;;;;;;;;;;;;;;17.02;52.56;99861.83;107635;1254;99220;-63
2024/02/11 09:50:21;;;;;;;;;;;;;;;17.45;51.07;99858.77;107633;1251;113354;-63
2024/02/11 09:52:51;;;;;;;;;;;;;;;17.70;49.52;99856.08;107596;1256;108819;-63
2024/02/11 09:55:20;;;;;;;;;;;;;;;17.97;48.57;99858.94;107659;1251;107130;-62
2024/02/11 09:57:49;;;;;;;;;;;;;;;18.28;47.82;99850.43;107601;1252;99195;-63
2024/02/11 10:00:18;;;;;;;;;;;;;;;18.24;47.14;99842.09;107605;1256;99207;-63
2024/02/11 10:02:47;;;;;;;;;;;;;;;18.31;46.42;99837.27;107615;1251;112965;-63
2024/02/11 10:05:17;;;;;;;;;;;;;;;18.74;45.75;99830.17;107598;1256;108687;-63
2024/02/11 10:07:46;;;;;;;;;;;;;;;19.00;44.84;99826.02;107595;1255;106702;-63
2024/02/11 10:10:15;;;;;;;;;;;;;;;18.77;44.88;99819.23;107576;1251;99214;-63
2024/02/11 10:12:45;;;;;;;;;;;;;;;18.43;45.47;99820.76;107568;1252;99188;-63
2024/02/11 10:15:16;;;;;;;;;;;;;;;18.08;46.14;99821.70;107592;1254;111882;-62
2024/02/11 10:17:47;;;;;;;;;;;;;;;17.77;46.82;99818.20;107577;1255;108344;-64
2024/02/11 10:20:17;;;;;;;;;;;;;;;17.39;46.55;99810.05;107536;1256;107678;-63
2024/02/11 10:22:46;;;;;;;;;;;;;;;17.12;46.72;99807.16;107545;1251;99185;-62
2024/02/11 10:25:16;;;;;;;;;;;;;;;16.93;46.80;99811.70;107591;1251;99191;-63
2024/02/11 10:27:45;;;;;;;;;;;;;;;16.80;47.32;99804.10;107573;1251;112771;-63
2024/02/11 10:30:14;;;;;;;;;;;;;;;16.77;47.96;99802.02;107559;1251;108394;-64
2024/02/11 10:32:42;;;;;;;;;;;;;;;16.75;48.15;99801.86;107619;1251;107395;-64
2024/02/11 10:35:11;;;;;;;;;;;;;;;16.77;48.28;99796.44;107514;1256;99140;-63
2024/02/11 10:37:46;;;;;;;;;;;;;;;16.70;48.77;99796.73;107554;1251;99028;-63
2024/02/11 10:40:23;;;;;;;;;;;;;;;16.54;49.23;99792.50;107557;1251;113433;-64
2024/02/11 10:42:51;;;;;;;;;;;;;;;16.40;49.53;99790.27;107567;1254;108703;-64
2024/02/11 10:45:20;;;;;;;;;;;;;;;16.27;49.26;99783.19;107607;1251;108385;-64
2024/02/11 10:47:48;;;;;;;;;;;;;;;16.30;49.26;99779.95;107464;1254;99705;-64
2024/02/11 10:50:17;;;;;;;;;;;;;;;16.41;49.39;99785.07;107541;1257;99204;-64
2024/02/11 10:52:47;;;;;;;;;;;;;;;16.66;49.15;99786.23;107489;1251;113157;-64
2024/02/11 10:55:17;;;;;;;;;;;;;;;17.28;48.33;99783.58;107443;1251;109112;-64
2024/02/11 10:57:52;;;;;;;;;;;;;;;18.13;47.14;99775.66;107471;1254;108146;-64
2024/02/11 11:00:21;;;;;;;;;;;;;;;18.89;47.35;99759.46;107471;1251;99193;-63
2024/02/11 11:02:53;;;;;;;;;;;;;;;19.72;46.31;99749.95;107578;1253;99220;-64
2024/02/11 11:05:23;;;;;;;;;;;;;;;20.58;45.09;99747.79;107473;1255;112192;-64
2024/02/11 11:07:53;;;;;;;;;;;;;;;20.97;43.93;99748.09;107474;1252;108309;-64
2024/02/11 11:10:22;;;;;;;;;;;;;;;20.88;44.38;99747.13;107517;1251;107917;-62
2024/02/11 11:12:54;;;;;;;;;;;;;;;20.96;43.94;99740.09;107451;1253;99159;-63
2024/02/11 11:15:23;;;;;;;;;;;;;;;21.41;42.39;99733.36;107478;1253;99109;-63
2024/02/11 11:17:54;;;;;;;;;;;;;;;21.60;42.96;99734.32;107533;1256;113464;-63
2024/02/11 11:20:23;;;;;;;;;;;;;;;21.57;42.35;99741.68;107513;1258;108380;-63
2024/02/11 11:22:55;;;;;;;;;;;;;;;21.33;42.20;99744.20;107462;1251;107407;-64
2024/02/11 11:25:34;;;;;;;;;;;;;;;20.99;40.16;99747.88;107527;1255;99243;-63
2024/02/11 11:28:13;;;;;;;;;;;;;;;20.54;41.32;99752.45;107531;1251;99420;-63
2024/02/11 11:30:41;;;;;;;;;;;;;;;20.13;41.73;99739.75;107523;1251;112330;-63
2024/02/11 11:33:12;;;;;;;;;;;;;;;19.78;42.53;99744.48;107486;1256;107954;-64
2024/02/11 11:35:41;;;;;;;;;;;;;;;19.57;42.87;99743.51;107476;1254;107625;-63
2024/02/11 11:38:09;;;;;;;;;;;;;;;19.48;42.44;99751.23;107498;1255;99208;-63
2024/02/11 11:40:38;;;;;;;;;;;;;;;19.51;42.35;99750.45;107457;1251;100100;-64
2024/02/11 11:43:16;;;;;;;;;;;;;;;19.71;43.12;99743.45;107593;1251;113430;-63
2024/02/11 11:46:03;;;;;;;;;;;;;;;20.26;43.33;99736.52;107524;1251;108344;-64
2024/02/11 11:48:33;;;;;;;;;;;;;;;20.89;43.07;99730.77;107581;1254;108179;-64
2024/02/11 11:51:03;;;;;;;;;;;;;;;20.90;42.49;99726.95;107534;1254;99234;-63
2024/02/11 11:53:31;;;;;;;;;;;;;;;20.80;42.49;99726.36;107528;1251;99210;-63
2024/02/11 11:56:00;;;;;;;;;;;;;;;20.75;42.75;99722.44;107543;1251;113386;-63
2024/02/11 11:58:30;;;;;;;;;;;;;;;20.74;41.94;99725.64;107550;1251;108643;-64
2024/02/11 12:01:02;;;;;;;;;;;;;;;20.61;39.90;99726.11;107467;1251;108111;-63
2024/02/11 12:03:32;;;;;;;;;;;;;;;20.48;40.57;99723.56;107550;1252;99065;-63
2024/02/11 12:06:00;;;;;;;;;;;;;;;20.56;40.92;99713.77;107493;1251;99266;-63
2024/02/11 12:08:29;;;;;;;;;;;;;;;20.63;41.41;99709.64;107457;1251;112675;-64
2024/02/11 12:10:58;;;;;;;;;;;;;;;20.83;41.93;99703.75;107456;1255;107775;-64
2024/02/11 12:13:29;;;;;;;;;;;;;;;20.83;41.58;99703.24;107447;1251;107643;-64
2024/02/11 12:15:57;;;;;;;;;;;;;;;20.56;41.32;99704.59;107499;1251;99206;-64
2024/02/11 12:18:26;;;;;;;;;;;;;;;20.35;41.91;99701.68;107522;1251;99672;-65
2024/02/11 12:20:55;;;;;;;;;;;;;;;20.21;42.32;99693.73;107529;1251;113089;-64
2024/02/11 12:23:23;;;;;;;;;;;;;;;20.08;42.66;99690.76;107489;1251;108548;-64
2024/02/11 12:25:56;;;;;;;;;;;;;;;19.92;42.54;99686.83;107486;1251;107849;-64
2024/02/11 12:28:25;;;;;;;;;;;;;;;19.67;43.07;99692.23;107482;1254;99216;-62
2024/02/11 12:31:06;;;;;;;;;;;;;;;19.60;43.65;99697.29;107514;1251;99087;-63
2024/02/11 12:33:42;;;;;;;;;;;;;;;19.66;43.88;99695.20;107570;1254;113893;-63
2024/02/11 12:36:12;;;;;;;;;;;;;;;19.78;44.25;99692.35;107483;1251;108375;-63
2024/02/11 12:38:44;;;;;;;;;;;;;;;19.78;43.92;99685.70;107532;1254;107344;-62
2024/02/11 12:41:13;;;;;;;;;;;;;;;19.66;43.62;99679.43;107513;1251;99348;-64
2024/02/11 12:43:43;;;;;;;;;;;;;;;19.56;44.15;99672.30;107391;1254;99233;-63
2024/02/11 12:46:11;;;;;;;;;;;;;;;19.55;44.29;99665.55;107446;1251;113306;-62
2024/02/11 12:48:43;;;;;;;;;;;;;;;19.47;44.17;99656.92;107393;1251;109555;-64
2024/02/11 12:51:13;;;;;;;;;;;;;;;19.26;44.30;99653.07;107391;1254;109473;-64